Historique des stations

Retrouvez les conditions météo en temps réel en cliquant ici...

Station météo de Bellegarde

Altitude de la station : 121 m







Données météorologiques pour le 20/10/2020
Date
Heure
Températures Humidité Point de rosée Vitesse
du vent
Direction Rafales Windchill Pression Pluviométrie
Cumul
Date
Heure
Températures Humidité Point de rosée Vitesse
du vent
Direction Rafales Windchill Pression Pluviométrie
Cumul
20/10/2020 18:4114.0 °C93 %12.9 °C-S10 km/h14.01008 hPa5.4 mm
20/10/2020 18:2614.0 °C93 %12.9 °C13 km/hS18 km/h13.71008 hPa5.2 mm
20/10/2020 18:1114.0 °C93 %12.9 °C3 km/hS18 km/h14.01008 hPa5.2 mm
20/10/2020 17:5614.0 °C93 %12.9 °C6 km/hSSE18 km/h13.41008 hPa5.2 mm
20/10/2020 17:4114.0 °C93 %12.9 °C-S21 km/h13.41009 hPa5.0 mm
20/10/2020 17:2614.1 °C93 %13.0 °C10 km/hSSE23 km/h13.41009 hPa4.6 mm
20/10/2020 17:1114.2 °C93 %13.1 °C10 km/hS24 km/h13.41009 hPa4.4 mm
20/10/2020 16:5614.2 °C93 %13.1 °C15 km/hS23 km/h12.61009 hPa4.2 mm
20/10/2020 16:4114.2 °C93 %13.1 °C11 km/hSSE24 km/h13.41009 hPa4.0 mm
20/10/2020 16:2614.2 °C93 %13.1 °C8 km/hSSE18 km/h13.91009 hPa3.8 mm
20/10/2020 16:1114.2 °C93 %13.1 °C10 km/hS18 km/h13.91009 hPa3.6 mm
20/10/2020 15:5614.1 °C93 %13.0 °C8 km/hS18 km/h13.61009 hPa3.4 mm
20/10/2020 15:4114.0 °C93 %12.9 °C11 km/hS21 km/h13.21009 hPa3.2 mm
20/10/2020 15:2613.9 °C93 %12.8 °C10 km/hSSE19 km/h13.41009 hPa3.2 mm
20/10/2020 15:1113.9 °C93 %12.8 °C10 km/hSSE18 km/h13.61010 hPa3.0 mm
20/10/2020 14:5613.9 °C93 %12.8 °C11 km/hSSE15 km/h13.91010 hPa2.8 mm
20/10/2020 14:4114.0 °C92 %12.7 °C-SSE16 km/h13.71010 hPa2.4 mm
20/10/2020 14:2613.9 °C92 %12.7 °C10 km/hS18 km/h13.91010 hPa2.2 mm
20/10/2020 14:1113.9 °C92 %12.7 °C11 km/hS16 km/h13.91010 hPa2.0 mm
20/10/2020 13:5613.9 °C92 %12.6 °C8 km/hS16 km/h13.91010 hPa1.6 mm
20/10/2020 13:4113.8 °C91 %12.4 °C6 km/hS19 km/h13.51010 hPa1.4 mm
20/10/2020 13:2613.9 °C91 %12.4 °C11 km/hSSO18 km/h13.11010 hPa1.4 mm
20/10/2020 13:1113.8 °C91 %12.4 °C15 km/hSSE19 km/h13.31010 hPa1.4 mm
20/10/2020 12:5613.7 °C91 %12.3 °C5 km/hS21 km/h13.41011 hPa1.2 mm
20/10/2020 12:4113.7 °C90 %12.1 °C8 km/hS23 km/h13.31011 hPa0.8 mm
20/10/2020 12:2613.7 °C89 %11.9 °C15 km/hS18 km/h13.41011 hPa0.8 mm
20/10/2020 12:1113.7 °C89 %11.9 °C15 km/hS23 km/h12.81010 hPa0.8 mm
20/10/2020 11:5613.7 °C89 %11.9 °C8 km/hS23 km/h13.11010 hPa0.8 mm
20/10/2020 11:4113.7 °C89 %11.9 °C10 km/hS19 km/h13.61010 hPa0.6 mm
20/10/2020 11:2613.6 °C88 %11.6 °C10 km/hSSO18 km/h13.61010 hPa0.6 mm
20/10/2020 11:1113.5 °C87 %11.4 °C15 km/hS15 km/h13.51010 hPa0.4 mm
20/10/2020 10:5613.4 °C87 %11.3 °C5 km/hS19 km/h13.31010 hPa0.4 mm
20/10/2020 10:4113.3 °C87 %11.2 °C16 km/hS21 km/h12.61010 hPa0.4 mm
20/10/2020 10:2613.3 °C87 %11.2 °C23 km/hS23 km/h12.91010 hPa0.4 mm
20/10/2020 10:1113.3 °C86 %11.0 °C2 km/hS16 km/h12.91010 hPa0.4 mm
20/10/2020 09:5613.2 °C85 %10.8 °C11 km/hS18 km/h12.81010 hPa0.4 mm
20/10/2020 09:4113.1 °C85 %10.6 °C2 km/hS18 km/h12.91010 hPa0.4 mm
20/10/2020 09:2612.9 °C85 %10.4 °C6 km/hS16 km/h12.41009 hPa0.4 mm
20/10/2020 09:1112.6 °C86 %10.3 °C2 km/hS19 km/h11.81009 hPa0.4 mm
20/10/2020 08:5612.4 °C86 %10.1 °C10 km/hSSE16 km/h12.11009 hPa0.4 mm
20/10/2020 08:4112.2 °C87 %10.1 °C-SSE16 km/h11.91009 hPa0.4 mm
20/10/2020 08:2612.1 °C87 %10.0 °C15 km/hS16 km/h11.51009 hPa0.4 mm
20/10/2020 08:1112.1 °C87 %10.0 °C6 km/hSSE18 km/h11.41009 hPa0.2 mm
20/10/2020 07:5612.3 °C85 %9.8 °C2 km/hSSO13 km/h12.31010 hPa0.2 mm
20/10/2020 07:4112.6 °C83 %9.7 °C2 km/hS13 km/h12.61009 hPa0.0 mm
20/10/2020 07:2612.7 °C81 %9.5 °C6 km/hSSO11 km/h12.71009 hPa0.0 mm
20/10/2020 07:1112.8 °C80 %9.4 °C-S11 km/h12.81009 hPa0.0 mm
20/10/2020 06:5612.7 °C80 %9.4 °C6 km/hS10 km/h12.71010 hPa0.0 mm
20/10/2020 06:4112.8 °C80 %9.4 °C-S10 km/h12.81010 hPa0.0 mm
20/10/2020 06:2612.7 °C80 %9.4 °C-S10 km/h12.71009 hPa0.0 mm
20/10/2020 06:1112.8 °C79 %9.3 °C-S13 km/h12.81009 hPa0.0 mm
20/10/2020 05:5612.9 °C77 %9.0 °C-S13 km/h12.91009 hPa0.0 mm
20/10/2020 05:4112.7 °C78 %9.0 °C3 km/hS16 km/h12.71009 hPa0.0 mm
20/10/2020 05:2612.6 °C78 %8.9 °C2 km/hSO11 km/h12.61009 hPa0.0 mm
20/10/2020 05:1112.3 °C79 %8.7 °C-S11 km/h12.31009 hPa0.0 mm
20/10/2020 04:5611.8 °C81 %8.6 °C6 km/hSSO11 km/h11.81009 hPa0.0 mm
20/10/2020 04:4111.2 °C83 %8.4 °C6 km/hSSO10 km/h11.21010 hPa0.0 mm
20/10/2020 04:2610.7 °C83 %8.0 °C6 km/hSSO10 km/h10.71010 hPa0.0 mm
20/10/2020 04:1110.7 °C83 %8.0 °C2 km/hS11 km/h10.71010 hPa0.0 mm
20/10/2020 03:5610.7 °C83 %7.9 °C-S8 km/h10.71010 hPa0.0 mm
20/10/2020 03:4110.6 °C84 %8.0 °C2 km/hSSO11 km/h10.61010 hPa0.0 mm
20/10/2020 03:2610.6 °C83 %7.8 °C-S10 km/h10.61010 hPa0.0 mm
20/10/2020 03:1110.6 °C83 %7.8 °C6 km/hS13 km/h10.61010 hPa0.0 mm
20/10/2020 02:5610.4 °C84 %7.9 °C-S10 km/h10.41010 hPa0.0 mm
20/10/2020 02:4110.6 °C83 %7.8 °C-S11 km/h10.61010 hPa0.0 mm
20/10/2020 02:2610.7 °C83 %8.0 °C-S11 km/h10.61010 hPa0.0 mm
20/10/2020 02:1110.8 °C82 %7.9 °C2 km/hS13 km/h10.81010 hPa0.0 mm
20/10/2020 01:5610.9 °C82 %7.9 °C-S10 km/h10.91010 hPa0.0 mm
20/10/2020 01:4110.8 °C83 %8.0 °C6 km/hS15 km/h10.31010 hPa0.0 mm
20/10/2020 01:2610.6 °C83 %7.8 °C2 km/hS10 km/h10.61010 hPa0.0 mm
20/10/2020 01:1110.7 °C82 %7.7 °C-S8 km/h10.71011 hPa0.0 mm
20/10/2020 00:5610.9 °C82 %7.9 °C10 km/hS11 km/h10.91011 hPa0.0 mm
20/10/2020 00:4110.3 °C84 %7.7 °C2 km/hS15 km/h10.21011 hPa0.0 mm
20/10/2020 00:268.7 °C88 %6.8 °C-SSE8 km/h8.71011 hPa0.0 mm
20/10/2020 00:118.2 °C87 %6.2 °C2 km/hSSE8 km/h8.21011 hPa0.0 mm


Minima :

Température : 8.2 °C
Humidité : 77 %
Point de rosée : 6.2 °C
Vent moyen : 2 km/h
Windchill : 8.2
Pression atm. : 1008 hPa
Maxima :

Température : 14.2 °C
Humidité : 93 %
Point de rosée : 13.1 °C
Vent moyen : 23 km/h
Windchill : 14.0
Pression atm. : 1011 hPa
Rafales max : 24 km/h
Cumul de pluie sur 24H : 5.4 mm

Bellegarde est une commune du département Loiret (45).
La station météorologique du réseau de l'association la plus proche de Bellegarde est celle de Saint-Firmin-des-Bois
Site du propriétaire de la station : meteo-grognon.com



Icône Facebook Association Météo Centre Icône Twitter Association Météo Centre Icône Chaîne Youtube Association Météo Centre Icône contact Association Météo Centre Icône Insta Association Météo Centre